Yankton, SD (57078)

16:46 CDT le 31 août 2015 (GMT -0500)
IEM | | Change Station
CLOSE
Current Station
Stations météorologiques personnelles
Location: Yankton, SD
Altitude: 1254 ft
Stations météo à proximité

Alt. 1254 ft 42.89 °N, 97.39 °W | Updated 19 minutes ago

Clear
Ciel dégagé
90 ° F
Paraît 101 ° F
N
0
Vent Variable Vent de Nord
Gusts 0.0 mph

Aujourd'hui
Haut(e) -- | Bas -- ° F
--% Risque de précip.
Hier
Haut(e) -- | Bas -- ° F
Precip. -- pouce
6:52 AM 8:06 PM
Lune gibbeuse décroissante, 93% visible
Pression 29.85 pouce
Visibilité 10.0 Miles terrestres
Nuages Ciel dégagé
indice de chaleur 101 ° F
Point de rosée 75 ° F
Humidité 63%
Précipitations pouce
Profondeur de la couche neigeuse Non disponible.
UV 4 sur 12
Pollen 10.80 sur 12
Qualité de l'air Non disponible.
Flu Activity Non disponible.
METAR KYKN 312135Z AUTO 19011KT 10SM CLR 29/19 A2985 RMK AO1
Pression 29.85 pouce
Visibilité 10.0 Miles terrestres
Nuages Ciel dégagé
indice de chaleur 101 ° F
Point de rosée 75 ° F
Humidité 63%
Précipitations pouce
Profondeur de la couche neigeuse Non disponible.
UV 4 sur 12
Pollen 10.80 sur 12
Qualité de l'air Non disponible.
Flu Activity Non disponible.
METAR KYKN 312135Z AUTO 19011KT 10SM CLR 29/19 A2985 RMK AO1

10-Day Weather Forecast

×

Almanac

Astronomie

Aug. 31, 2015 Lever Coucher
Temps réel
Crépuscule civil
Crépuscule nautique
Crépuscule astronomique
Lune
Durée de lumière visible
Longueur du jour
Tomorrow will be .
, % of the Moon is Illuminated

Extrêmes aujourd'hui

State Highs State Lows

Community

WunderPhotos

Upload Photos

1,851,377 Photos téléchargées !

WunderBlogs® & News

Nearby

Qualité de l'air

  Qualité de l'air Indice de la qualité de l'air Polluant
Not available.

Épaisseur de neige

Station Depth Altitude

Activité sismique

Ville Distance Mag. Time & Date
Minimum magnitude displayed is 2.5.

Températures des eaux côtières

Lieu Température

Stations

Stations météo à proximité

Emplacement de la station Température Refroidissement éolien Point de rosée Humidité Vent Precip. Alt. Mise à jour Type